Time;durP1;ratioP1;P1;durP2;ratioP2;P2;SDS_P1;SDS_P2;PMS_P1;PMS_P2;Temp;Humidity;BMP_temperature;BMP_pressure;BME280_temperature;BME280_humidity;BME280_pressure;Samples;Min_cycle;Max_cycle;Signal;HPM_P1;HPM_P2
2021/04/18 00:01:32;;;;;;;;;;;;;;;18.40;29.87;100368.25;4416576;32;19954;-54
2021/04/18 00:03:58;;;;;;;;;;;;;;;18.46;29.71;100366.59;4417559;32;19950;-52
2021/04/18 00:06:24;;;;;;;;;;;;;;;18.40;29.88;100367.34;4416878;32;20200;-54
2021/04/18 00:08:49;;;;;;;;;;;;;;;18.38;29.90;100363.78;4416895;32;20294;-54
2021/04/18 00:11:15;;;;;;;;;;;;;;;18.34;30.02;100359.34;4417239;32;19954;-52
2021/04/18 00:13:41;;;;;;;;;;;;;;;18.39;29.90;100360.31;4417579;32;19938;-55
2021/04/18 00:16:07;;;;;;;;;;;;;;;18.35;30.01;100358.47;4416775;32;19954;-55
2021/04/18 00:18:33;;;;;;;;;;;;;;;18.40;29.95;100354.16;4416822;32;19984;-51
2021/04/18 00:20:59;;;;;;;;;;;;;;;18.39;29.90;100361.16;4417549;32;19946;-52
2021/04/18 00:23:25;;;;;;;;;;;;;;;18.40;29.85;100351.53;4416178;32;19985;-53
2021/04/18 00:25:51;;;;;;;;;;;;;;;18.40;29.97;100351.53;4416991;32;20106;-52
2021/04/18 00:28:16;;;;;;;;;;;;;;;18.35;29.98;100347.94;4414738;32;19954;-52
2021/04/18 00:30:42;;;;;;;;;;;;;;;18.33;30.08;100345.25;4416754;32;19998;-51
2021/04/18 00:33:08;;;;;;;;;;;;;;;18.40;29.85;100340.97;4416551;32;20002;-55
2021/04/18 00:35:34;;;;;;;;;;;;;;;18.34;30.04;100339.09;4417004;32;19992;-53
2021/04/18 00:38:00;;;;;;;;;;;;;;;18.34;30.07;100343.50;4416466;32;19950;-50
2021/04/18 00:40:26;;;;;;;;;;;;;;;18.33;30.01;100337.34;4415358;32;19977;-51
2021/04/18 00:42:52;;;;;;;;;;;;;;;18.38;30.14;100334.78;4416180;32;19958;-53
2021/04/18 00:45:18;;;;;;;;;;;;;;;18.29;30.11;100332.88;4415633;32;19946;-50
2021/04/18 00:47:44;;;;;;;;;;;;;;;18.36;30.02;100339.16;4406431;32;19951;-54
2021/04/18 00:50:10;;;;;;;;;;;;;;;18.35;30.09;100332.09;4401544;32;20001;-51
2021/04/18 00:52:36;;;;;;;;;;;;;;;18.31;30.04;100330.25;4409633;32;19962;-50
2021/04/18 00:55:02;;;;;;;;;;;;;;;18.38;29.96;100329.53;4417027;32;19966;-55
2021/04/18 00:57:28;;;;;;;;;;;;;;;18.30;30.03;100329.38;4414753;32;20467;-51
2021/04/18 00:59:53;;;;;;;;;;;;;;;18.35;29.99;100326.84;4415872;32;19953;-51
2021/04/18 01:02:19;;;;;;;;;;;;;;;18.32;29.97;100324.13;4416693;32;19987;-54
2021/04/18 01:04:45;;;;;;;;;;;;;;;18.25;30.01;100326.62;4415201;32;19958;-52
2021/04/18 01:07:11;;;;;;;;;;;;;;;18.26;30.27;100323.16;4415994;32;19993;-50
2021/04/18 01:09:37;;;;;;;;;;;;;;;18.15;30.40;100319.41;4416942;32;19951;-53
2021/04/18 01:12:03;;;;;;;;;;;;;;;18.24;30.30;100319.59;4411968;32;19997;-52
2021/04/18 01:14:29;;;;;;;;;;;;;;;18.21;30.35;100314.25;4401700;32;19984;-49
2021/04/18 01:16:55;;;;;;;;;;;;;;;18.20;30.21;100317.72;4400932;32;20367;-52
2021/04/18 01:19:20;;;;;;;;;;;;;;;18.28;30.23;100315.28;4415806;32;19969;-53
2021/04/18 01:21:46;;;;;;;;;;;;;;;18.19;30.39;100315.09;4416469;32;19978;-48
2021/04/18 01:24:12;;;;;;;;;;;;;;;18.31;30.15;100319.69;4399352;32;20313;-53
2021/04/18 01:26:38;;;;;;;;;;;;;;;18.28;30.24;100309.09;4400338;32;19958;-54
2021/04/18 01:29:04;;;;;;;;;;;;;;;18.20;30.31;100320.38;4413937;32;20006;-53
2021/04/18 01:31:30;;;;;;;;;;;;;;;18.25;30.24;100315.19;4415804;32;19990;-55
2021/04/18 01:33:56;;;;;;;;;;;;;;;18.35;30.04;100311.87;4415656;32;19995;-52
2021/04/18 01:36:22;;;;;;;;;;;;;;;18.36;29.96;100310.16;4415935;32;20300;-51
2021/04/18 01:38:48;;;;;;;;;;;;;;;18.31;29.95;100307.41;4404915;32;20032;-54
2021/04/18 01:41:13;;;;;;;;;;;;;;;18.27;30.21;100308.19;4401005;32;19970;-53
2021/04/18 01:43:39;;;;;;;;;;;;;;;18.33;29.92;100312.69;4410574;32;20608;-54
2021/04/18 01:46:05;;;;;;;;;;;;;;;18.30;30.24;100312.66;4412482;32;20009;-53
2021/04/18 01:48:31;;;;;;;;;;;;;;;18.25;30.08;100305.56;4407395;32;19955;-55
2021/04/18 01:50:57;;;;;;;;;;;;;;;18.30;30.13;100307.38;4401311;32;19950;-53
2021/04/18 01:53:23;;;;;;;;;;;;;;;18.22;30.25;100305.50;4407379;32;20335;-55
2021/04/18 01:55:49;;;;;;;;;;;;;;;18.25;30.24;100310.81;4416389;32;19942;-54
2021/04/18 01:58:15;;;;;;;;;;;;;;;18.26;30.26;100302.06;4415481;32;19941;-54
2021/04/18 02:00:40;;;;;;;;;;;;;;;18.23;30.14;100302.00;4415907;32;20002;-50
2021/04/18 02:03:06;;;;;;;;;;;;;;;18.20;30.43;100301.03;4415996;32;19965;-53
2021/04/18 02:05:32;;;;;;;;;;;;;;;18.26;30.21;100307.31;4415894;32;20264;-52
2021/04/18 02:07:58;;;;;;;;;;;;;;;18.29;30.21;100300.34;4416228;32;19970;-52
2021/04/18 02:10:24;;;;;;;;;;;;;;;18.24;30.14;100303.78;4418502;32;19958;-54
2021/04/18 02:12:51;;;;;;;;;;;;;;;18.21;30.32;100311.63;4418817;32;19958;-51
2021/04/18 02:15:16;;;;;;;;;;;;;;;18.25;30.24;100307.28;4403467;32;19968;-53
2021/04/18 02:17:42;;;;;;;;;;;;;;;18.21;30.28;100306.34;4403520;32;20332;-52
2021/04/18 02:20:08;;;;;;;;;;;;;;;18.14;30.48;100304.44;4418182;32;19966;-52
2021/04/18 02:22:34;;;;;;;;;;;;;;;18.18;30.39;100306.28;4419738;32;19966;-53
2021/04/18 02:25:00;;;;;;;;;;;;;;;18.21;30.24;100306.34;4418156;32;20391;-53
2021/04/18 02:27:27;;;;;;;;;;;;;;;18.23;30.20;100304.63;4418587;32;20003;-54
2021/04/18 02:29:53;;;;;;;;;;;;;;;18.25;30.21;100300.28;4419142;32;19988;-55
2021/04/18 02:32:19;;;;;;;;;;;;;;;18.27;30.08;100300.28;4417982;32;20343;-53
2021/04/18 02:34:45;;;;;;;;;;;;;;;18.28;30.21;100311.75;4418633;32;19958;-53
2021/04/18 02:37:11;;;;;;;;;;;;;;;18.26;30.23;100304.69;4418546;32;19977;-52
2021/04/18 02:39:37;;;;;;;;;;;;;;;18.21;30.24;100308.09;4418040;32;19958;-53
2021/04/18 02:42:02;;;;;;;;;;;;;;;18.24;30.20;100309.06;4418400;32;20225;-51
2021/04/18 02:44:28;;;;;;;;;;;;;;;18.22;30.29;100310.78;4409710;32;20320;-53
2021/04/18 02:46:54;;;;;;;;;;;;;;;18.19;30.38;100310.69;4403406;32;19943;-53
2021/04/18 02:49:20;;;;;;;;;;;;;;;18.24;30.26;100311.69;4409559;32;19954;-51
2021/04/18 02:51:46;;;;;;;;;;;;;;;18.25;30.23;100302.00;4418670;32;20391;-54
2021/04/18 02:54:12;;;;;;;;;;;;;;;18.32;30.16;100305.66;4418429;32;20005;-52
2021/04/18 02:56:38;;;;;;;;;;;;;;;18.26;30.27;100311.69;4418528;32;19957;-50
2021/04/18 02:59:03;;;;;;;;;;;;;;;18.26;30.28;100307.31;4412796;32;19954;-52
2021/04/18 03:01:29;;;;;;;;;;;;;;;18.25;30.24;100302.91;4407545;32;20292;-55
2021/04/18 03:03:55;;;;;;;;;;;;;;;18.25;30.16;100309.91;4417741;32;20345;-52
2021/04/18 03:06:21;;;;;;;;;;;;;;;18.21;30.41;100306.34;4416511;32;19986;-53
2021/04/18 03:08:47;;;;;;;;;;;;;;;18.25;30.28;100294.09;4417110;32;20337;-54
2021/04/18 03:11:13;;;;;;;;;;;;;;;18.23;30.30;100296.72;4417391;32;19968;-53
2021/04/18 03:13:39;;;;;;;;;;;;;;;18.19;30.39;100297.50;4414894;32;20005;-49
2021/04/18 03:16:05;;;;;;;;;;;;;;;18.14;30.47;100291.25;4417589;32;19950;-50
2021/04/18 03:18:31;;;;;;;;;;;;;;;18.18;30.41;100294.84;4416939;32;20365;-53
2021/04/18 03:20:56;;;;;;;;;;;;;;;18.30;30.20;100296.84;4417447;32;20461;-53
2021/04/18 03:23:22;;;;;;;;;;;;;;;18.21;30.39;100292.28;4416609;32;20031;-50
2021/04/18 03:25:48;;;;;;;;;;;;;;;18.29;30.24;100295.06;4416785;32;19960;-53
2021/04/18 03:28:14;;;;;;;;;;;;;;;18.22;30.41;100294.97;4417469;32;19969;-54
2021/04/18 03:30:40;;;;;;;;;;;;;;;18.19;30.39;100294.87;4416943;32;19962;-54
2021/04/18 03:33:06;;;;;;;;;;;;;;;18.20;30.41;100291.37;4416943;32;19990;-53
2021/04/18 03:35:32;;;;;;;;;;;;;;;18.23;30.33;100290.56;4415832;32;20354;-53
2021/04/18 03:37:58;;;;;;;;;;;;;;;18.17;30.45;100295.72;4417638;32;19954;-53
2021/04/18 03:40:23;;;;;;;;;;;;;;;18.25;30.32;100294.09;4417005;32;20251;-51
2021/04/18 03:42:49;;;;;;;;;;;;;;;18.17;30.35;100290.44;4417418;32;19950;-52
2021/04/18 03:45:15;;;;;;;;;;;;;;;18.13;30.56;100289.50;4415465;32;19962;-55
2021/04/18 03:47:43;;;;;;;;;;;;;;;18.19;30.51;100300.12;4418014;32;19998;-54
2021/04/18 03:50:09;;;;;;;;;;;;;;;18.24;30.36;100294.97;4417181;32;20358;-52
2021/04/18 03:52:35;;;;;;;;;;;;;;;18.18;30.38;100294.84;4417442;32;19962;-52
2021/04/18 03:55:01;;;;;;;;;;;;;;;18.19;30.51;100289.59;4417910;32;19985;-51
2021/04/18 03:57:27;;;;;;;;;;;;;;;18.20;30.47;100290.50;4417698;32;19962;-52
2021/04/18 03:59:53;;;;;;;;;;;;;;;18.12;30.59;100292.97;4417371;32;20011;-54
2021/04/18 04:02:19;;;;;;;;;;;;;;;18.14;30.56;100293.00;4418078;32;19958;-51
2021/04/18 04:04:45;;;;;;;;;;;;;;;18.20;30.50;100290.50;4417866;32;20333;-53
2021/04/18 04:07:11;;;;;;;;;;;;;;;18.14;30.48;100304.44;4417647;32;19966;-52
2021/04/18 04:09:38;;;;;;;;;;;;;;;18.17;30.42;100296.59;4419295;32;19954;-52
2021/04/18 04:12:04;;;;;;;;;;;;;;;18.21;30.50;100298.44;4418551;32;19973;-55
2021/04/18 04:14:30;;;;;;;;;;;;;;;18.17;30.54;100301.87;4419132;32;19951;-53
2021/04/18 04:16:56;;;;;;;;;;;;;;;18.16;30.57;100301.84;4417824;32;19960;-52
2021/04/18 04:19:22;;;;;;;;;;;;;;;18.11;30.50;100305.25;4417548;32;20322;-53
2021/04/18 04:21:47;;;;;;;;;;;;;;;18.14;30.42;100306.19;4418019;32;19950;-54
2021/04/18 04:24:13;;;;;;;;;;;;;;;18.22;30.55;100304.59;4418750;32;19950;-53
2021/04/18 04:26:39;;;;;;;;;;;;;;;18.18;30.50;100300.12;4418447;32;19968;-52
2021/04/18 04:29:05;;;;;;;;;;;;;;;18.16;30.58;100302.72;4418185;32;20344;-48
2021/04/18 04:31:31;;;;;;;;;;;;;;;18.11;30.54;100307.03;4415065;32;19954;-54
2021/04/18 04:33:57;;;;;;;;;;;;;;;18.19;30.35;100305.41;4402907;32;20357;-52
2021/04/18 04:36:23;;;;;;;;;;;;;;;18.19;30.42;100302.78;4411072;32;20033;-54
2021/04/18 04:38:49;;;;;;;;;;;;;;;18.22;30.36;100305.50;4418140;32;19949;-51
2021/04/18 04:41:14;;;;;;;;;;;;;;;18.18;30.44;100301.00;4418318;32;19934;-54
2021/04/18 04:43:40;;;;;;;;;;;;;;;18.13;30.54;100302.66;4418279;32;20274;-52
2021/04/18 04:46:06;;;;;;;;;;;;;;;18.10;30.69;100305.25;4416498;32;20418;-53
2021/04/18 04:48:32;;;;;;;;;;;;;;;18.12;30.59;100309.66;4416601;32;19950;-51
2021/04/18 04:50:58;;;;;;;;;;;;;;;18.21;30.54;100303.72;4413248;32;20374;-51
2021/04/18 04:53:24;;;;;;;;;;;;;;;18.14;30.59;100308.81;4402807;32;19966;-54
2021/04/18 04:55:50;;;;;;;;;;;;;;;18.14;30.60;100307.06;4402289;32;19984;-53
2021/04/18 04:58:16;;;;;;;;;;;;;;;18.10;30.66;100310.50;4401831;32;19977;-53
2021/04/18 05:00:42;;;;;;;;;;;;;;;18.15;30.61;100305.31;4404034;32;20047;-52
2021/04/18 05:03:08;;;;;;;;;;;;;;;18.19;30.58;100307.19;4417668;32;19998;-53
2021/04/18 05:05:33;;;;;;;;;;;;;;;18.14;30.56;100309.72;4417819;32;19942;-52
2021/04/18 05:07:59;;;;;;;;;;;;;;;18.18;30.59;100314.19;4417351;32;20327;-54
2021/04/18 05:10:25;;;;;;;;;;;;;;;18.12;30.58;100314.06;4416834;32;19990;-54
2021/04/18 05:12:51;;;;;;;;;;;;;;;18.14;30.62;100314.09;4416918;32;19994;-52
2021/04/18 05:15:17;;;;;;;;;;;;;;;18.14;30.71;100311.44;4417593;32;20289;-52
2021/04/18 05:17:43;;;;;;;;;;;;;;;18.05;30.97;100317.41;4417674;32;20432;-54
2021/04/18 05:20:09;;;;;;;;;;;;;;;18.01;30.96;100318.19;4416181;32;19950;-53
2021/04/18 05:22:35;;;;;;;;;;;;;;;18.05;30.87;100320.06;4416918;32;20101;-53
2021/04/18 05:25:01;;;;;;;;;;;;;;;18.14;30.68;100327.25;4416015;32;19951;-54
2021/04/18 05:27:26;;;;;;;;;;;;;;;18.19;30.59;100326.50;4416605;32;19962;-52
2021/04/18 05:29:52;;;;;;;;;;;;;;;18.21;30.79;100334.44;4415625;32;19950;-54
2021/04/18 05:32:18;;;;;;;;;;;;;;;18.08;30.78;100328.03;4415449;32;19950;-53
2021/04/18 05:34:44;;;;;;;;;;;;;;;18.06;31.00;100332.37;4415470;32;20484;-53
2021/04/18 05:37:10;;;;;;;;;;;;;;;18.08;30.85;100334.19;4416565;32;19934;-52
2021/04/18 05:39:36;;;;;;;;;;;;;;;18.18;30.62;100332.63;4416541;32;19953;-54
2021/04/18 05:42:02;;;;;;;;;;;;;;;18.18;30.54;100330.00;4417739;32;19968;-54
2021/04/18 05:44:28;;;;;;;;;;;;;;;18.20;30.62;100325.63;4415864;32;21641;-55
2021/04/18 05:46:54;;;;;;;;;;;;;;;18.24;30.53;100330.12;4415575;32;19961;-54
2021/04/18 05:49:20;;;;;;;;;;;;;;;18.25;30.52;100324.00;4414255;32;19949;-55
2021/04/18 05:51:46;;;;;;;;;;;;;;;18.19;30.71;100329.13;4417376;32;19939;-55
2021/04/18 05:54:12;;;;;;;;;;;;;;;18.22;30.64;100326.59;4416457;32;19938;-54
2021/04/18 05:56:37;;;;;;;;;;;;;;;18.29;30.48;100329.31;4417131;32;20299;-51
2021/04/18 05:59:03;;;;;;;;;;;;;;;18.26;30.61;100330.16;4416817;32;19950;-53
2021/04/18 06:01:29;;;;;;;;;;;;;;;18.17;30.83;100338.75;4416283;32;19954;-54
2021/04/18 06:03:55;;;;;;;;;;;;;;;18.20;30.87;100335.31;4416264;32;19962;-52
2021/04/18 06:06:21;;;;;;;;;;;;;;;18.19;30.72;100344.94;4415958;32;19996;-55
2021/04/18 06:08:47;;;;;;;;;;;;;;;18.18;30.76;100345.81;4415718;32;19958;-54
2021/04/18 06:11:13;;;;;;;;;;;;;;;18.26;30.58;100346.88;4416861;32;19988;-52
2021/04/18 06:13:39;;;;;;;;;;;;;;;18.26;30.60;100344.22;4416903;32;20306;-53
2021/04/18 06:16:05;;;;;;;;;;;;;;;18.17;30.85;100354.56;4416009;32;19965;-53
2021/04/18 06:18:31;;;;;;;;;;;;;;;18.13;30.93;100347.47;4415943;32;20002;-52
2021/04/18 06:20:57;;;;;;;;;;;;;;;18.23;30.78;100351.19;4416503;32;19993;-54
2021/04/18 06:23:22;;;;;;;;;;;;;;;18.26;30.66;100345.97;4416838;32;20034;-55
2021/04/18 06:25:48;;;;;;;;;;;;;;;18.26;30.73;100346.88;4416874;32;20290;-52
2021/04/18 06:28:14;;;;;;;;;;;;;;;18.28;30.72;100346.00;4415326;32;19943;-52
2021/04/18 06:30:40;;;;;;;;;;;;;;;18.25;30.84;100352.09;4417066;32;20340;-53
2021/04/18 06:33:06;;;;;;;;;;;;;;;18.24;30.86;100338.03;4417231;32;19962;-55
2021/04/18 06:35:32;;;;;;;;;;;;;;;18.31;30.74;100340.78;4417530;32;19938;-54
2021/04/18 06:37:58;;;;;;;;;;;;;;;18.21;30.89;100340.62;4410581;32;20339;-53
2021/04/18 06:40:24;;;;;;;;;;;;;;;18.26;30.82;100344.22;4401224;32;19958;-55
2021/04/18 06:42:49;;;;;;;;;;;;;;;18.23;30.87;100344.19;4410651;32;19939;-51
2021/04/18 06:45:16;;;;;;;;;;;;;;;18.24;30.84;100345.03;4414718;32;20294;-55
2021/04/18 06:47:41;;;;;;;;;;;;;;;18.30;30.72;100345.19;4415247;32;20013;-51
2021/04/18 06:50:07;;;;;;;;;;;;;;;18.35;30.84;100338.25;4415697;32;19995;-51
2021/04/18 06:52:33;;;;;;;;;;;;;;;18.35;30.81;100342.66;4417414;32;19942;-53
2021/04/18 06:54:59;;;;;;;;;;;;;;;18.37;30.69;100340.94;4417525;32;20339;-52
2021/04/18 06:57:25;;;;;;;;;;;;;;;18.37;30.69;100335.66;4415606;32;20368;-54
2021/04/18 06:59:51;;;;;;;;;;;;;;;18.33;30.70;100333.78;4415289;32;20003;-52
2021/04/18 07:02:17;;;;;;;;;;;;;;;18.30;30.95;100336.38;4416297;32;20703;-52
2021/04/18 07:04:43;;;;;;;;;;;;;;;18.11;31.60;100330.75;4403300;32;19947;-53
2021/04/18 07:07:08;;;;;;;;;;;;;;;18.20;31.19;100335.31;4402841;32;19962;-52
2021/04/18 07:09:34;;;;;;;;;;;;;;;18.13;31.36;100339.56;4403732;32;19943;-50
2021/04/18 07:12:02;;;;;;;;;;;;;;;18.07;31.54;100342.06;4403319;32;19965;-53
2021/04/18 07:14:28;;;;;;;;;;;;;;;18.04;31.59;100328.81;4417280;32;19954;-51
2021/04/18 07:16:54;;;;;;;;;;;;;;;18.08;31.66;100338.56;4403967;32;19996;-54
2021/04/18 07:19:20;;;;;;;;;;;;;;;18.03;31.76;100341.13;4417825;32;19962;-53
2021/04/18 07:21:46;;;;;;;;;;;;;;;17.97;31.98;100331.31;4418360;32;19988;-51
2021/04/18 07:24:12;;;;;;;;;;;;;;;17.94;32.08;100336.47;4417482;32;20029;-53
2021/04/18 07:26:38;;;;;;;;;;;;;;;17.93;32.02;100334.72;4417431;32;20322;-52
2021/04/18 07:29:04;;;;;;;;;;;;;;;17.97;32.04;100326.03;4412913;32;19946;-54
2021/04/18 07:31:30;;;;;;;;;;;;;;;17.91;32.07;100325.88;4415218;32;20422;-54
2021/04/18 07:33:56;;;;;;;;;;;;;;;18.02;31.90;100333.13;4416876;32;20008;-55
2021/04/18 07:36:22;;;;;;;;;;;;;;;18.11;31.58;100328.09;4416248;32;19982;-55
2021/04/18 07:38:47;;;;;;;;;;;;;;;18.15;31.66;100323.75;4416528;32;19954;-55
2021/04/18 07:41:13;;;;;;;;;;;;;;;18.25;31.43;100331.91;4415753;32;19962;-53
2021/04/18 07:43:39;;;;;;;;;;;;;;;18.27;31.40;100329.28;4412637;32;20332;-53
2021/04/18 07:46:05;;;;;;;;;;;;;;;18.23;31.59;100330.09;4401700;32;19954;-54
2021/04/18 07:48:31;;;;;;;;;;;;;;;18.23;31.64;100330.09;4402837;32;19962;-51
2021/04/18 07:50:57;;;;;;;;;;;;;;;18.21;31.38;100329.19;4415735;32;20295;-52
2021/04/18 07:53:23;;;;;;;;;;;;;;;18.07;32.02;100326.25;4415069;32;20233;-57
2021/04/18 07:55:49;;;;;;;;;;;;;;;18.10;31.99;100324.56;4403618;32;20335;-52
2021/04/18 07:58:15;;;;;;;;;;;;;;;18.20;31.98;100327.41;4403206;32;19946;-53
2021/04/18 08:00:41;;;;;;;;;;;;;;;18.15;31.88;100319.41;4417627;32;19954;-52
2021/04/18 08:03:07;;;;;;;;;;;;;;;18.08;32.29;100323.66;4418461;32;19952;-55
2021/04/18 08:05:32;;;;;;;;;;;;;;;18.05;32.30;100325.31;4417235;32;19995;-53
2021/04/18 08:07:58;;;;;;;;;;;;;;;17.99;32.30;100328.69;4417583;32;20369;-52
2021/04/18 08:10:25;;;;;;;;;;;;;;;17.96;32.49;100323.34;4417566;32;20386;-48
2021/04/18 08:12:51;;;;;;;;;;;;;;;18.06;32.29;100329.72;4418718;32;19950;-53
2021/04/18 08:15:16;;;;;;;;;;;;;;;18.01;32.51;100326.97;4416831;32;20001;-50
2021/04/18 08:17:42;;;;;;;;;;;;;;;18.08;32.41;100328.03;4416562;32;19934;-54
2021/04/18 08:20:08;;;;;;;;;;;;;;;18.01;32.71;100331.38;4418118;32;19950;-53
2021/04/18 08:22:34;;;;;;;;;;;;;;;17.91;32.86;100327.66;4419520;32;19951;-55
2021/04/18 08:25:00;;;;;;;;;;;;;;;18.01;32.38;100334.88;4419273;32;19984;-53
2021/04/18 08:27:26;;;;;;;;;;;;;;;18.10;32.18;100332.47;4418721;32;19977;-54
2021/04/18 08:29:52;;;;;;;;;;;;;;;18.09;32.40;100329.81;4419196;32;19997;-54
2021/04/18 08:32:18;;;;;;;;;;;;;;;18.03;32.48;100329.69;4418996;32;19973;-51
2021/04/18 08:34:44;;;;;;;;;;;;;;;18.16;32.22;100334.34;4418741;32;19954;-54
2021/04/18 08:37:10;;;;;;;;;;;;;;;18.09;32.33;100337.72;4418458;32;20046;-53
2021/04/18 08:39:36;;;;;;;;;;;;;;;18.28;32.03;100338.09;4418571;32;20377;-53
2021/04/18 08:42:01;;;;;;;;;;;;;;;18.20;32.29;100338.81;4418328;32;20004;-52
2021/04/18 08:44:27;;;;;;;;;;;;;;;18.09;32.39;100340.38;4419348;32;20008;-54
2021/04/18 08:46:53;;;;;;;;;;;;;;;17.96;32.82;100340.06;4418340;32;19954;-54
2021/04/18 08:49:19;;;;;;;;;;;;;;;17.97;32.75;100336.56;4417554;32;19954;-53
2021/04/18 08:51:45;;;;;;;;;;;;;;;17.98;32.44;100341.00;4404416;32;20722;-52
2021/04/18 08:54:11;;;;;;;;;;;;;;;18.19;32.21;100328.25;4403229;32;19954;-54
2021/04/18 08:56:37;;;;;;;;;;;;;;;18.25;32.13;100336.28;4417384;32;19942;-52
2021/04/18 08:59:03;;;;;;;;;;;;;;;18.21;32.30;100339.72;4418131;32;19957;-49
2021/04/18 09:01:29;;;;;;;;;;;;;;;18.11;32.68;100338.66;4417079;32;20283;-55
2021/04/18 09:03:55;;;;;;;;;;;;;;;18.10;32.35;100334.25;4418697;32;19946;-51
2021/04/18 09:06:29;;;;;;;;;;;;;;;18.20;32.33;100344.09;4416956;32;19984;-55
2021/04/18 09:08:55;;;;;;;;;;;;;;;18.24;32.20;100335.41;4417587;32;19950;-54
2021/04/18 09:11:20;;;;;;;;;;;;;;;18.35;32.04;100334.75;4418212;32;19985;-54
2021/04/18 09:13:46;;;;;;;;;;;;;;;18.31;32.38;100344.31;4418597;32;19973;-55
2021/04/18 09:16:12;;;;;;;;;;;;;;;18.44;32.21;100342.81;4418377;32;19957;-53
2021/04/18 09:18:38;;;;;;;;;;;;;;;18.47;32.37;100348.16;4410368;32;20276;-54
2021/04/18 09:21:04;;;;;;;;;;;;;;;18.41;32.05;100350.66;4415849;32;19950;-55
2021/04/18 09:23:30;;;;;;;;;;;;;;;18.41;32.17;100342.75;4416747;32;19954;-54
2021/04/18 09:25:56;;;;;;;;;;;;;;;18.43;31.89;100341.03;4416491;32;19958;-54
2021/04/18 09:28:22;;;;;;;;;;;;;;;18.53;31.76;100350.03;4415856;32;19986;-53
2021/04/18 09:30:47;;;;;;;;;;;;;;;18.61;31.69;100350.19;4416054;32;20371;-54
2021/04/18 09:33:13;;;;;;;;;;;;;;;18.61;31.75;100355.47;4414916;32;19962;-55
2021/04/18 09:35:39;;;;;;;;;;;;;;;18.62;31.61;100341.41;4417037;32;19951;-54
2021/04/18 09:38:06;;;;;;;;;;;;;;;18.60;31.84;100348.41;4414486;32;20315;-54
2021/04/18 09:40:32;;;;;;;;;;;;;;;18.63;31.69;100345.81;4413016;32;19961;-53
2021/04/18 09:42:59;;;;;;;;;;;;;;;18.53;32.14;100348.28;4416641;32;19977;-55
2021/04/18 09:45:25;;;;;;;;;;;;;;;18.37;32.18;100346.19;4415864;32;20368;-52
2021/04/18 09:47:51;;;;;;;;;;;;;;;18.35;32.47;100345.28;4416296;32;19989;-52
2021/04/18 09:50:17;;;;;;;;;;;;;;;18.36;32.46;100349.69;4416742;32;20252;-48
2021/04/18 09:52:43;;;;;;;;;;;;;;;18.33;32.58;100344.34;4416240;32;19950;-52
2021/04/18 09:55:09;;;;;;;;;;;;;;;18.34;32.58;100349.66;4416559;32;19957;-50
2021/04/18 09:57:35;;;;;;;;;;;;;;;18.45;32.36;100351.63;4416091;32;19942;-51
2021/04/18 10:00:00;;;;;;;;;;;;;;;18.44;32.21;100353.34;4416346;32;20327;-54
2021/04/18 10:02:26;;;;;;;;;;;;;;;18.52;32.07;100354.41;4414617;32;19954;-51
2021/04/18 10:04:52;;;;;;;;;;;;;;;18.50;32.11;100352.59;4416215;32;20327;-50
2021/04/18 10:07:18;;;;;;;;;;;;;;;18.64;31.91;100352.87;4415092;32;19955;-52
2021/04/18 10:09:44;;;;;;;;;;;;;;;18.61;31.96;100355.47;4416640;32;19950;-52
2021/04/18 10:12:10;;;;;;;;;;;;;;;18.61;32.16;100351.06;4417137;32;19973;-50
2021/04/18 10:14:36;;;;;;;;;;;;;;;18.62;32.11;100349.31;4416278;32;19950;-56
2021/04/18 10:17:02;;;;;;;;;;;;;;;18.48;32.50;100349.94;4416579;32;20003;-55
2021/04/18 10:19:28;;;;;;;;;;;;;;;18.59;32.33;100351.91;4400952;32;20023;-54
2021/04/18 10:21:54;;;;;;;;;;;;;;;18.72;32.09;100348.66;4402276;32;20290;-54
2021/04/18 10:24:20;;;;;;;;;;;;;;;18.78;31.89;100348.75;4401477;32;20003;-56
2021/04/18 10:26:45;;;;;;;;;;;;;;;18.77;31.95;100349.59;4397423;32;20006;-56
2021/04/18 10:29:11;;;;;;;;;;;;;;;18.71;32.20;100352.16;4408697;32;20040;-56
2021/04/18 10:31:38;;;;;;;;;;;;;;;18.76;32.10;100349.56;4420134;32;20009;-55
2021/04/18 10:34:04;;;;;;;;;;;;;;;18.76;32.14;100345.19;4419661;32;20231;-56
2021/04/18 10:36:30;;;;;;;;;;;;;;;18.72;32.17;100343.38;4417308;32;19954;-55
2021/04/18 10:38:56;;;;;;;;;;;;;;;18.74;32.20;100346.00;4419255;32;19951;-56
2021/04/18 10:41:22;;;;;;;;;;;;;;;18.77;32.08;100336.41;4419971;32;20013;-54
2021/04/18 10:43:48;;;;;;;;;;;;;;;18.70;32.29;100331.87;4417357;32;19950;-54
2021/04/18 10:46:14;;;;;;;;;;;;;;;18.67;32.39;100330.09;4417289;32;21048;-55
2021/04/18 10:48:39;;;;;;;;;;;;;;;18.70;32.28;100329.22;4418561;32;19964;-53
2021/04/18 10:51:05;;;;;;;;;;;;;;;18.68;32.33;100321.31;4419631;32;20014;-50
2021/04/18 10:53:31;;;;;;;;;;;;;;;18.66;32.37;100327.41;4419153;32;20311;-56
2021/04/18 10:55:57;;;;;;;;;;;;;;;18.64;32.50;100321.22;4417946;32;19964;-56
2021/04/18 10:58:23;;;;;;;;;;;;;;;18.65;32.47;100320.34;4411078;32;20063;-55
2021/04/18 11:00:49;;;;;;;;;;;;;;;18.67;32.46;100323.91;4419445;32;19961;-56
2021/04/18 11:03:15;;;;;;;;;;;;;;;18.66;32.59;100322.13;4419020;32;19977;-56
2021/04/18 11:05:41;;;;;;;;;;;;;;;18.65;32.67;100320.34;4419287;32;20023;-52
2021/04/18 11:08:08;;;;;;;;;;;;;;;18.64;32.64;100323.84;4417702;32;20350;-56
2021/04/18 11:10:34;;;;;;;;;;;;;;;18.60;32.74;100322.03;4419516;32;20327;-55
2021/04/18 11:13:00;;;;;;;;;;;;;;;18.58;32.79;100318.44;4419279;32;19993;-55
2021/04/18 11:15:26;;;;;;;;;;;;;;;18.59;32.89;100325.53;4418382;32;20333;-56
2021/04/18 11:17:52;;;;;;;;;;;;;;;18.58;32.94;100323.72;4418871;32;20017;-53
2021/04/18 11:20:18;;;;;;;;;;;;;;;18.59;32.99;100320.25;4417680;32;19964;-51
2021/04/18 11:22:44;;;;;;;;;;;;;;;18.53;33.12;100315.75;4418943;32;19958;-56
2021/04/18 11:25:10;;;;;;;;;;;;;;;18.59;33.03;100320.25;4419214;32;19948;-54
2021/04/18 11:27:36;;;;;;;;;;;;;;;18.58;33.04;100313.19;4417709;32;19942;-56
2021/04/18 11:30:02;;;;;;;;;;;;;;;18.61;33.04;100318.53;4419453;32;19961;-56
2021/04/18 11:32:28;;;;;;;;;;;;;;;18.63;32.98;100316.81;4397612;32;20587;-55
2021/04/18 11:34:55;;;;;;;;;;;;;;;18.61;33.04;100319.41;4412962;32;20001;-54
2021/04/18 11:37:21;;;;;;;;;;;;;;;18.59;33.07;100315.84;4417484;32;19964;-56
2021/04/18 11:39:46;;;;;;;;;;;;;;;18.63;33.07;100314.16;4418245;32;19969;-51
2021/04/18 11:42:12;;;;;;;;;;;;;;;18.61;33.12;100315.91;4418444;32;19973;-54
2021/04/18 11:44:38;;;;;;;;;;;;;;;18.61;33.13;100321.16;4416432;32;19969;-54
2021/04/18 11:47:04;;;;;;;;;;;;;;;18.60;33.14;100320.28;4417713;32;19957;-50
2021/04/18 11:49:30;;;;;;;;;;;;;;;18.61;33.14;100319.41;4418148;32;19989;-54
2021/04/18 11:51:56;;;;;;;;;;;;;;;18.62;33.16;100326.44;4418850;32;19966;-52
2021/04/18 11:54:22;;;;;;;;;;;;;;;18.61;33.22;100326.44;4418171;32;20306;-54
2021/04/18 11:56:48;;;;;;;;;;;;;;;18.61;33.25;100324.69;4418901;32;20580;-55
2021/04/18 11:59:14;;;;;;;;;;;;;;;18.67;33.17;100313.34;4419271;32;19965;-56
2021/04/18 12:01:39;;;;;;;;;;;;;;;18.66;33.33;100316.84;4418920;32;19969;-55
2021/04/18 12:04:05;;;;;;;;;;;;;;;18.68;33.27;100317.78;4408872;32;19946;-54
2021/04/18 12:06:31;;;;;;;;;;;;;;;18.67;33.24;100308.97;4403277;32;19950;-56
2021/04/18 12:08:57;;;;;;;;;;;;;;;18.70;33.27;100313.41;4413206;32;19969;-53
2021/04/18 12:11:23;;;;;;;;;;;;;;;18.70;33.23;100308.13;4419098;32;20041;-57
2021/04/18 12:13:49;;;;;;;;;;;;;;;18.76;33.18;100307.34;4410174;32;19961;-57
2021/04/18 12:16:15;;;;;;;;;;;;;;;18.73;33.32;100305.56;4403892;32;19951;-57
2021/04/18 12:18:41;;;;;;;;;;;;;;;18.74;33.35;100309.09;4414558;32;19941;-56
2021/04/18 12:21:07;;;;;;;;;;;;;;;18.76;33.30;100305.63;4418678;32;19980;-56
2021/04/18 12:23:33;;;;;;;;;;;;;;;18.83;33.18;100303.97;4419181;32;19938;-57
2021/04/18 12:25:59;;;;;;;;;;;;;;;18.77;33.29;100302.13;4414972;32;20649;-57
2021/04/18 12:28:26;;;;;;;;;;;;;;;18.77;33.26;100299.47;4416686;32;19950;-56